createdAt,value
2018-11-07T00:01:50.593Z,27.00
2018-11-07T00:04:44.479Z,27.00
2018-11-07T00:07:38.662Z,27.00
2018-11-07T00:10:36.024Z,27.00
2018-11-07T00:13:30.308Z,27.00
2018-11-07T00:16:24.594Z,27.00
2018-11-07T00:19:18.674Z,27.00
2018-11-07T00:22:12.946Z,27.00
2018-11-07T00:25:06.940Z,27.00
2018-11-07T00:28:00.464Z,27.00
2018-11-07T00:30:54.199Z,27.00
2018-11-07T00:33:48.188Z,27.00
2018-11-07T00:36:44.463Z,27.00
2018-11-07T00:39:36.212Z,27.00
2018-11-07T00:42:30.370Z,27.00
2018-11-07T00:45:24.536Z,27.00
2018-11-07T00:48:18.360Z,27.00
2018-11-07T00:51:11.941Z,27.00
2018-11-07T00:54:05.702Z,27.00
2018-11-07T00:56:59.227Z,27.00
2018-11-07T00:59:55.706Z,27.00
2018-11-07T01:02:50.238Z,27.00
2018-11-07T01:05:44.279Z,27.00
2018-11-07T01:08:38.960Z,27.00
2018-11-07T01:11:32.540Z,27.00
2018-11-07T01:14:27.036Z,27.00
2018-11-07T01:17:21.321Z,27.00
2018-11-07T01:20:17.158Z,27.00
2018-11-07T01:23:11.532Z,27.00
2018-11-07T01:26:05.570Z,27.00
2018-11-07T01:28:59.283Z,26.90
2018-11-07T01:31:53.048Z,26.90
2018-11-07T01:34:55.744Z,26.90
2018-11-07T01:37:49.519Z,26.90
2018-11-07T01:40:43.097Z,26.80
2018-11-07T01:43:36.856Z,26.80
2018-11-07T01:46:30.443Z,26.80
2018-11-07T01:49:24.509Z,26.80
2018-11-07T01:52:18.986Z,26.80
2018-11-07T01:55:16.255Z,26.80
2018-11-07T01:58:10.115Z,26.80
2018-11-07T02:01:04.220Z,26.80
2018-11-07T02:03:58.391Z,26.70
2018-11-07T02:07:02.012Z,26.70
2018-11-07T02:09:45.507Z,26.70
2018-11-07T02:12:42.891Z,26.70
2018-11-07T02:15:36.768Z,26.70
2018-11-07T02:18:30.852Z,26.70
2018-11-07T02:21:24.729Z,26.70
2018-11-07T02:24:21.062Z,26.70
2018-11-07T02:27:16.067Z,26.70
2018-11-07T02:30:12.515Z,26.70
2018-11-07T02:33:09.449Z,26.70
2018-11-07T02:36:03.429Z,26.70
2018-11-07T02:38:59.966Z,26.70
2018-11-07T02:41:53.779Z,26.70
2018-11-07T02:44:47.924Z,26.70
2018-11-07T02:47:42.122Z,26.70
2018-11-07T02:50:36.301Z,26.70
2018-11-07T02:53:30.064Z,26.70
2018-11-07T02:56:24.060Z,26.70
2018-11-07T02:59:18.127Z,26.80
2018-11-07T03:02:14.470Z,26.80
2018-11-07T03:05:08.745Z,26.80
2018-11-07T03:08:03.312Z,26.80
2018-11-07T03:10:57.311Z,26.80
2018-11-07T03:13:51.069Z,26.80
2018-11-07T03:16:44.967Z,26.80
2018-11-07T03:19:38.743Z,26.80
2018-11-07T03:22:32.511Z,26.90
2018-11-07T03:25:26.804Z,26.90
2018-11-07T03:28:21.082Z,27.00
2018-11-07T03:31:15.373Z,27.00
2018-11-07T03:34:09.389Z,27.10
2018-11-07T03:37:03.229Z,27.10
2018-11-07T03:39:59.322Z,27.20
2018-11-07T03:42:53.641Z,27.20
2018-11-07T03:46:03.858Z,27.20
2018-11-07T03:48:58.086Z,27.30
2018-11-07T03:51:51.710Z,27.30
2018-11-07T03:54:45.840Z,27.30
2018-11-07T03:57:39.920Z,27.30
2018-11-07T04:00:33.898Z,27.40
2018-11-07T04:03:27.979Z,27.40
2018-11-07T04:06:22.667Z,27.40
2018-11-07T04:09:17.174Z,27.50
2018-11-07T04:12:11.544Z,27.50
2018-11-07T04:15:05.762Z,27.50
2018-11-07T04:17:59.924Z,27.50
2018-11-07T04:20:54.804Z,27.50
2018-11-07T04:23:59.915Z,27.60
2018-11-07T04:26:56.529Z,27.60
2018-11-07T04:29:49.662Z,27.60
2018-11-07T04:32:50.062Z,27.70
2018-11-07T04:35:39.677Z,27.70
2018-11-07T04:38:33.642Z,27.70
2018-11-07T04:41:27.828Z,27.70
2018-11-07T04:44:22.222Z,27.70
2018-11-07T04:47:15.682Z,27.70
2018-11-07T04:50:10.070Z,27.80
2018-11-07T04:53:09.384Z,27.80
2018-11-07T04:56:05.818Z,27.80
2018-11-07T04:58:59.480Z,27.80
2018-11-07T05:01:55.988Z,27.80
2018-11-07T05:04:47.135Z,27.90
2018-11-07T05:07:40.914Z,27.90
2018-11-07T05:10:34.388Z,27.90
2018-11-07T05:13:28.035Z,27.90
2018-11-07T05:16:21.923Z,27.90
2018-11-07T05:19:15.817Z,28.00
2018-11-07T05:22:09.665Z,28.00
2018-11-07T05:25:05.480Z,28.00
2018-11-07T05:27:59.476Z,28.10
2018-11-07T05:30:53.453Z,28.10
2018-11-07T05:33:47.229Z,28.20
2018-11-07T05:36:41.209Z,28.20
2018-11-07T05:39:35.161Z,28.30
2018-11-07T05:42:29.260Z,28.30
2018-11-07T05:45:22.945Z,28.30
2018-11-07T05:48:16.817Z,28.40
2018-11-07T05:51:11.090Z,28.40
2018-11-07T05:54:04.462Z,28.40
2018-11-07T05:56:58.341Z,28.50
2018-11-07T05:59:52.111Z,28.50
2018-11-07T06:02:46.396Z,28.50
2018-11-07T06:05:40.374Z,28.50
2018-11-07T06:08:34.151Z,28.60
2018-11-07T06:11:30.282Z,28.60
2018-11-07T06:14:24.930Z,28.70
2018-11-07T06:17:18.865Z,28.70
2018-11-07T06:20:14.197Z,28.80
2018-11-07T06:23:09.268Z,28.80
2018-11-07T06:26:03.148Z,28.90
2018-11-07T06:28:57.122Z,28.90
2018-11-07T06:31:50.693Z,28.90
2018-11-07T06:34:44.456Z,29.00
2018-11-07T06:37:38.959Z,29.10
2018-11-07T06:40:32.512Z,29.10
2018-11-07T06:43:27.326Z,29.20
2018-11-07T06:46:21.803Z,29.30
2018-11-07T06:49:16.309Z,29.40
2018-11-07T06:52:12.744Z,29.50
2018-11-07T06:55:06.623Z,29.60
2018-11-07T06:58:00.399Z,29.70
2018-11-07T07:00:54.985Z,29.80
2018-11-07T07:03:48.962Z,29.90
2018-11-07T07:06:43.356Z,29.90
2018-11-07T07:09:37.112Z,29.90
2018-11-07T07:12:31.829Z,30.00
2018-11-07T07:15:25.761Z,30.00
2018-11-07T07:18:19.662Z,30.00
2018-11-07T07:21:14.094Z,30.10
2018-11-07T07:24:11.658Z,30.10
2018-11-07T07:27:06.119Z,30.10
2018-11-07T07:30:00.983Z,30.10
2018-11-07T07:32:55.328Z,30.10
2018-11-07T07:35:49.388Z,30.10
2018-11-07T07:38:44.286Z,30.10
2018-11-07T07:41:38.371Z,30.10
2018-11-07T07:44:32.246Z,30.20
2018-11-07T07:47:26.841Z,30.20
2018-11-07T07:50:21.636Z,30.20
2018-11-07T07:53:15.899Z,30.20
2018-11-07T07:56:09.594Z,30.20
2018-11-07T07:59:03.689Z,30.20
2018-11-07T08:02:01.214Z,30.20
2018-11-07T08:04:52.351Z,30.20
2018-11-07T08:07:46.760Z,30.20
2018-11-07T08:10:41.927Z,30.20
2018-11-07T08:13:36.612Z,30.30
2018-11-07T08:16:30.724Z,30.20
2018-11-07T08:19:25.962Z,30.20
2018-11-07T08:22:20.181Z,30.20
2018-11-07T08:25:16.251Z,30.20
2018-11-07T08:28:10.313Z,30.20
2018-11-07T08:31:04.286Z,30.20
2018-11-07T08:33:58.495Z,30.20
2018-11-07T08:36:52.259Z,30.20
2018-11-07T08:39:49.209Z,30.20
2018-11-07T08:42:43.189Z,30.20
2018-11-07T08:45:39.734Z,30.20
2018-11-07T08:48:33.532Z,30.30
2018-11-07T08:51:27.376Z,30.30
2018-11-07T08:54:21.046Z,30.30
2018-11-07T08:57:15.130Z,30.30
2018-11-07T09:00:10.639Z,30.30
2018-11-07T09:03:04.825Z,30.30
2018-11-07T09:05:58.703Z,30.40
2018-11-07T09:08:52.989Z,30.40
2018-11-07T09:11:47.046Z,30.40
2018-11-07T09:14:47.998Z,30.40
2018-11-07T09:17:37.996Z,30.40
2018-11-07T09:20:31.773Z,30.50
2018-11-07T09:23:27.600Z,30.50
2018-11-07T09:26:21.164Z,30.50
2018-11-07T09:29:14.771Z,30.50
2018-11-07T09:32:09.322Z,30.50
2018-11-07T09:35:02.894Z,30.60
2018-11-07T09:37:57.178Z,30.60
2018-11-07T09:40:54.227Z,30.60
2018-11-07T09:43:48.326Z,30.60
2018-11-07T09:46:42.290Z,30.60
2018-11-07T09:49:35.978Z,30.70
2018-11-07T09:52:30.351Z,30.70
2018-11-07T09:55:26.593Z,30.70
2018-11-07T09:58:20.648Z,30.70
2018-11-07T10:01:14.334Z,30.70
2018-11-07T10:04:08.931Z,30.70
2018-11-07T10:07:02.811Z,30.70
2018-11-07T10:09:59.362Z,30.70
2018-11-07T10:12:53.593Z,30.70
2018-11-07T10:15:47.403Z,30.70
2018-11-07T10:18:41.285Z,30.70
2018-11-07T10:21:35.342Z,30.70
2018-11-07T10:24:29.654Z,30.70
2018-11-07T10:27:23.442Z,30.70
2018-11-07T10:30:19.083Z,30.70
2018-11-07T10:33:12.911Z,30.70
2018-11-07T10:36:06.896Z,30.70
2018-11-07T10:39:01.014Z,30.70
2018-11-07T10:41:59.868Z,30.70
2018-11-07T10:44:53.519Z,30.60
2018-11-07T10:47:48.528Z,30.60
2018-11-07T10:50:41.909Z,30.60
2018-11-07T10:53:35.676Z,30.60
2018-11-07T10:56:32.933Z,30.60
2018-11-07T10:59:23.636Z,30.50
2018-11-07T11:02:34.092Z,30.50
2018-11-07T11:05:27.878Z,30.50
2018-11-07T11:08:28.109Z,30.50
2018-11-07T11:11:22.149Z,30.40
2018-11-07T11:14:15.752Z,30.30
2018-11-07T11:17:09.736Z,30.30
2018-11-07T11:20:03.608Z,30.30
2018-11-07T11:22:57.489Z,30.20
2018-11-07T11:25:51.389Z,30.20
2018-11-07T11:28:45.235Z,30.20
2018-11-07T11:31:39.223Z,30.10
2018-11-07T11:34:32.998Z,30.10
2018-11-07T11:37:29.943Z,30.00
2018-11-07T11:40:23.492Z,30.00
2018-11-07T11:43:19.670Z,29.90
2018-11-07T11:46:13.436Z,29.90
2018-11-07T11:49:07.587Z,29.90
2018-11-07T11:52:00.831Z,29.90
2018-11-07T11:54:54.364Z,29.80
2018-11-07T11:57:48.811Z,29.80
2018-11-07T12:00:42.472Z,29.70
2018-11-07T12:03:37.587Z,29.70
2018-11-07T12:06:31.683Z,29.60
2018-11-07T12:09:25.239Z,29.60
2018-11-07T12:12:19.304Z,29.60
2018-11-07T12:15:16.235Z,29.60
2018-11-07T12:18:10.041Z,29.50
2018-11-07T12:21:03.711Z,29.50
2018-11-07T12:23:57.797Z,29.50
2018-11-07T12:26:55.277Z,29.50
2018-11-07T12:29:48.829Z,29.50
2018-11-07T12:32:42.604Z,29.40
2018-11-07T12:35:40.101Z,29.40
2018-11-07T12:38:30.868Z,29.40
2018-11-07T12:41:31.798Z,29.40
2018-11-07T12:44:21.993Z,29.40
2018-11-07T12:47:15.968Z,29.40
2018-11-07T12:50:21.029Z,29.40
2018-11-07T12:53:14.472Z,29.40
2018-11-07T12:56:08.248Z,29.40
2018-11-07T12:59:02.025Z,29.30
2018-11-07T13:01:55.807Z,29.30
2018-11-07T13:04:50.372Z,29.30
2018-11-07T13:07:48.583Z,29.30
2018-11-07T13:10:38.306Z,29.30
2018-11-07T13:13:31.927Z,29.20
2018-11-07T13:16:26.054Z,29.20
2018-11-07T13:19:19.669Z,29.20
2018-11-07T13:22:13.682Z,29.20
2018-11-07T13:25:07.835Z,29.20
2018-11-07T13:28:05.344Z,29.20
2018-11-07T13:30:55.791Z,29.20
2018-11-07T13:33:49.492Z,29.20
2018-11-07T13:36:43.058Z,29.20
2018-11-07T13:39:39.366Z,29.20
2018-11-07T13:42:33.342Z,29.20
2018-11-07T13:45:29.712Z,29.20
2018-11-07T13:48:23.663Z,29.20
2018-11-07T13:51:28.892Z,29.20
2018-11-07T13:54:25.643Z,29.20
2018-11-07T13:57:19.417Z,29.20
2018-11-07T14:00:31.238Z,29.20
2018-11-07T14:03:29.118Z,29.20
2018-11-07T14:06:19.279Z,29.20
2018-11-07T14:09:14.787Z,29.20
2018-11-07T14:12:08.561Z,29.20
2018-11-07T14:15:05.306Z,29.20
2018-11-07T14:17:59.592Z,29.20
2018-11-07T14:20:53.515Z,29.20
2018-11-07T14:23:46.981Z,29.20
2018-11-07T14:26:40.414Z,29.20
2018-11-07T14:29:33.869Z,29.20
2018-11-07T14:32:28.052Z,29.20
2018-11-07T14:35:22.029Z,29.20
2018-11-07T14:38:15.893Z,29.20
2018-11-07T14:41:09.373Z,29.10
2018-11-07T14:46:57.185Z,29.10
2018-11-07T14:49:51.443Z,29.00
2018-11-07T14:52:45.184Z,29.00
2018-11-07T14:55:39.891Z,29.00
2018-11-07T14:58:33.554Z,28.90
2018-11-07T15:01:30.227Z,28.90
2018-11-07T15:04:28.057Z,28.90
2018-11-07T15:07:18.369Z,28.90
2018-11-07T15:10:17.451Z,28.90
2018-11-07T15:13:11.128Z,28.80
2018-11-07T15:16:05.412Z,28.80
2018-11-07T15:18:59.789Z,28.80
2018-11-07T15:21:53.475Z,28.80
2018-11-07T15:24:46.983Z,28.70
2018-11-07T15:27:41.022Z,28.70
2018-11-07T15:30:37.042Z,28.70
2018-11-07T15:33:33.872Z,28.70
2018-11-07T15:36:27.923Z,28.60
2018-11-07T15:39:21.545Z,28.60
2018-11-07T15:42:15.425Z,28.60
2018-11-07T15:45:12.026Z,28.60
2018-11-07T15:48:08.301Z,28.60
2018-11-07T15:51:15.896Z,28.60
2018-11-07T15:54:10.794Z,28.50
2018-11-07T15:57:04.667Z,28.50
2018-11-07T15:59:58.847Z,28.50
2018-11-07T16:02:52.507Z,28.50
2018-11-07T16:05:46.293Z,28.50
2018-11-07T16:08:40.272Z,28.50
2018-11-07T16:11:37.127Z,28.40
2018-11-07T16:14:31.022Z,28.40
2018-11-07T16:17:24.977Z,28.40
2018-11-07T16:20:22.659Z,28.40
2018-11-07T16:23:19.815Z,28.40
2018-11-07T16:26:13.569Z,28.40
2018-11-07T16:29:07.855Z,28.30
2018-11-07T16:32:02.038Z,28.30
2018-11-07T16:34:56.177Z,28.30
2018-11-07T16:37:50.353Z,28.30
2018-11-07T16:40:44.044Z,28.30
2018-11-07T16:43:37.764Z,28.20
2018-11-07T16:46:31.400Z,28.30
2018-11-07T16:49:25.195Z,28.30
2018-11-07T16:52:18.867Z,28.30
2018-11-07T16:55:12.328Z,28.30
2018-11-07T16:58:06.031Z,28.30
2018-11-07T17:00:59.774Z,28.30
2018-11-07T17:03:53.750Z,28.40
2018-11-07T17:06:47.462Z,28.40
2018-11-07T17:09:40.994Z,28.40
2018-11-07T17:12:34.581Z,28.40
2018-11-07T17:15:28.442Z,28.40
2018-11-07T17:18:22.319Z,28.40
2018-11-07T17:21:15.884Z,28.40
2018-11-07T17:24:09.816Z,28.40
2018-11-07T17:27:03.554Z,28.40
2018-11-07T17:29:57.317Z,28.40
2018-11-07T17:32:51.503Z,28.40
2018-11-07T17:35:45.676Z,28.40
2018-11-07T17:38:42.799Z,28.40
2018-11-07T17:41:36.298Z,28.40
2018-11-07T17:44:30.690Z,28.40
2018-11-07T17:47:24.490Z,28.40
2018-11-07T17:50:19.363Z,28.40
2018-11-07T17:53:13.031Z,28.40
2018-11-07T17:56:07.007Z,28.40
2018-11-07T17:59:00.979Z,28.30
2018-11-07T18:01:55.171Z,28.30
2018-11-07T18:04:48.965Z,28.30
2018-11-07T18:07:42.943Z,28.20
2018-11-07T18:10:36.594Z,28.20
2018-11-07T18:13:31.735Z,28.20
2018-11-07T18:16:25.639Z,28.10
2018-11-07T18:19:19.455Z,28.10
2018-11-07T18:22:15.991Z,28.10
2018-11-07T18:25:10.199Z,28.10
2018-11-07T18:28:04.038Z,28.00
2018-11-07T18:30:57.927Z,28.00
2018-11-07T18:33:51.599Z,28.00
2018-11-07T18:36:45.369Z,27.90
2018-11-07T18:39:39.252Z,27.90
2018-11-07T18:42:32.921Z,27.90
2018-11-07T18:45:26.593Z,27.90
2018-11-07T18:48:23.733Z,27.90
2018-11-07T18:51:17.316Z,27.80
2018-11-07T18:54:11.710Z,27.80
2018-11-07T18:57:05.787Z,27.80
2018-11-07T19:00:02.424Z,27.80
2018-11-07T19:02:56.293Z,27.80
2018-11-07T19:05:50.181Z,27.70
2018-11-07T19:08:43.698Z,27.70
2018-11-07T19:11:37.418Z,27.70
2018-11-07T19:14:31.712Z,27.70
2018-11-07T19:17:25.785Z,27.70
2018-11-07T19:20:19.890Z,27.60
2018-11-07T19:23:13.848Z,27.60
2018-11-07T19:26:08.038Z,27.60
2018-11-07T19:29:01.969Z,27.60
2018-11-07T19:31:58.753Z,27.60
2018-11-07T19:34:52.338Z,27.50
2018-11-07T19:37:45.975Z,27.50
2018-11-07T19:40:42.636Z,27.50
2018-11-07T19:43:36.713Z,27.50
2018-11-07T19:46:30.804Z,27.40
2018-11-07T19:49:24.474Z,27.40
2018-11-07T19:52:21.397Z,27.40
2018-11-07T19:55:20.780Z,27.40
2018-11-07T19:58:14.496Z,27.30
2018-11-07T20:01:08.371Z,27.30
2018-11-07T20:04:02.463Z,27.30
2018-11-07T20:06:55.992Z,27.30
2018-11-07T20:09:50.509Z,27.30
2018-11-07T20:12:44.182Z,27.30
2018-11-07T20:15:38.301Z,27.30
2018-11-07T20:18:32.448Z,27.30
2018-11-07T20:21:26.217Z,27.30
2018-11-07T20:24:19.994Z,27.30
2018-11-07T20:27:13.665Z,27.30
2018-11-07T20:30:07.629Z,27.30
2018-11-07T20:33:01.745Z,27.30
2018-11-07T20:35:55.857Z,27.30
2018-11-07T20:38:49.483Z,27.30
2018-11-07T20:41:43.477Z,27.30
2018-11-07T20:44:37.786Z,27.20
2018-11-07T20:47:31.821Z,27.20
2018-11-07T20:50:25.581Z,27.20
2018-11-07T20:53:19.784Z,27.20
2018-11-07T20:56:13.954Z,27.20
2018-11-07T20:59:07.356Z,27.20
2018-11-07T21:02:01.402Z,27.10
2018-11-07T21:04:55.395Z,27.10
2018-11-07T21:07:49.174Z,27.10
2018-11-07T21:10:45.905Z,27.00
2018-11-07T21:13:36.709Z,27.00
2018-11-07T21:16:30.382Z,27.00
2018-11-07T21:19:24.259Z,26.90
2018-11-07T21:22:18.339Z,26.90
2018-11-07T21:25:12.117Z,26.90
2018-11-07T21:28:05.582Z,26.80
2018-11-07T21:31:02.392Z,26.80
2018-11-07T21:33:56.532Z,26.70
2018-11-07T21:36:50.385Z,26.70
2018-11-07T21:39:44.055Z,26.70
2018-11-07T21:42:37.627Z,26.70
2018-11-07T21:45:35.322Z,26.60
2018-11-07T21:48:25.393Z,26.60
2018-11-07T21:51:19.459Z,26.60
2018-11-07T21:54:13.545Z,26.60
2018-11-07T21:57:07.828Z,26.60
2018-11-07T22:00:01.808Z,26.50
2018-11-07T22:02:55.532Z,26.50
2018-11-07T22:05:58.670Z,26.50
2018-11-07T22:08:52.548Z,26.50
2018-11-07T22:11:46.943Z,26.50
2018-11-07T22:14:40.505Z,26.40
2018-11-07T22:17:34.664Z,26.40
2018-11-07T22:20:28.273Z,26.40
2018-11-07T22:23:22.135Z,26.30
2018-11-07T22:26:16.195Z,26.30
2018-11-07T22:29:10.806Z,26.30
2018-11-07T22:32:04.341Z,26.20
2018-11-07T22:34:58.255Z,26.20
2018-11-07T22:37:52.331Z,26.20
2018-11-07T22:40:46.105Z,26.10
2018-11-07T22:43:40.196Z,26.10
2018-11-07T22:46:33.881Z,26.10
2018-11-07T22:49:27.679Z,26.10
2018-11-07T22:52:21.512Z,26.10
2018-11-07T22:55:15.594Z,26.00
2018-11-07T22:58:09.161Z,26.00
2018-11-07T23:01:23.929Z,26.00
2018-11-07T23:04:17.646Z,25.90
2018-11-07T23:07:12.316Z,25.90
2018-11-07T23:10:05.971Z,25.90
2018-11-07T23:13:03.020Z,25.90
2018-11-07T23:15:56.588Z,25.90
2018-11-07T23:18:50.654Z,25.80
2018-11-07T23:21:44.658Z,25.80
2018-11-07T23:24:38.523Z,25.80
2018-11-07T23:27:32.892Z,25.80
2018-11-07T23:30:27.001Z,25.80
2018-11-07T23:33:20.768Z,25.80
2018-11-07T23:36:14.853Z,25.80
2018-11-07T23:39:10.031Z,25.80
2018-11-07T23:42:04.024Z,25.80
2018-11-07T23:44:58.423Z,25.80
2018-11-07T23:47:52.513Z,25.80
2018-11-07T23:50:46.276Z,25.80
2018-11-07T23:53:40.048Z,25.80
2018-11-07T23:56:35.164Z,25.80
2018-11-07T23:59:29.036Z,25.80
